This is the latest recevied weather packets stored in our database for station/object SQ3VAS-10. If no packets are shown the sender has not sent any weather packets the latest 10 day(s).
| Time | Temp. | Humidity | Pressure | Rain* | Wind** | Luminosity | Snow |
|---|---|---|---|---|---|---|---|
| 1777636818 | 28.33° C | 26% | 1026.9 hPa | - | - | - | - |
| 1777636244 | 28.89° C | 26% | 1027 hPa | - | - | - | - |
| 1777635672 | 28.33° C | 25% | 1027 hPa | - | - | - | - |
| 1777635097 | 28.89° C | 27% | 1027.1 hPa | - | - | - | - |
| 1777634524 | 27.22° C | 28% | 1027.3 hPa | - | - | - | - |
| 1777633950 | 27.78° C | 29% | 1027.2 hPa | - | - | - | - |
| 1777633376 | 27.78° C | 29% | 1027.4 hPa | - | - | - | - |
| 1777632802 | 26.67° C | 33% | 1027.6 hPa | - | - | - | - |
| 1777632229 | 26.11° C | 31% | 1027.6 hPa | - | - | - | - |
| 1777631657 | 26.11° C | 31% | 1027.7 hPa | - | - | - | - |
| 1777631080 | 25.56° C | 32% | 1027.8 hPa | - | - | - | - |
| 1777630508 | 25° C | 33% | 1028 hPa | - | - | - | - |
| 1777629935 | 26.11° C | 32% | 1027.9 hPa | - | - | - | - |
| 1777629362 | 25° C | 33% | 1028.1 hPa | - | - | - | - |
| 1777628791 | 25.56° C | 34% | 1028.1 hPa | - | - | - | - |
| 1777628216 | 26.11° C | 32% | 1028 hPa | - | - | - | - |
| 1777627640 | 25° C | 35% | 1028.2 hPa | - | - | - | - |
| 1777627064 | 23.89° C | 36% | 1028.3 hPa | - | - | - | - |
| 1777626486 | 20° C | 44% | 1028.6 hPa | - | - | - | - |
| 1777625913 | 18.89° C | 46% | 1028.7 hPa | - | - | - | - |
| 1777625340 | 18.33° C | 47% | 1028.7 hPa | - | - | - | - |
| 1777624766 | 18.33° C | 48% | 1028.8 hPa | - | - | - | - |
| 1777624193 | 18.33° C | 48% | 1028.8 hPa | - | - | - | - |
| 1777623619 | 17.78° C | 48% | 1028.8 hPa | - | - | - | - |
| 1777623049 | 17.22° C | 51% | 1029 hPa | - | - | - | - |
* Rain since midnight (hover to see other rain measurements)
** Current wind speed in m/s (hover to see current wind gust speed)